createdAt,value
2019-05-09T00:00:48.335Z,99.8611
2019-05-09T00:01:51.292Z,99.5651
2019-05-09T00:02:55.278Z,99.3316
2019-05-09T00:03:58.334Z,98.4512
2019-05-09T00:05:03.420Z,98.8647
2019-05-09T00:06:07.315Z,98.9563
2019-05-09T00:07:10.280Z,99.8215
2019-05-09T00:08:14.330Z,99.4903
2019-05-09T00:09:17.272Z,99.2569
2019-05-09T00:10:35.209Z,99.4766
2019-05-09T00:11:29.281Z,100.0000
2019-05-09T00:12:33.523Z,99.8672
2019-05-09T00:13:37.303Z,100.0000
2019-05-09T00:14:40.284Z,100.0000
2019-05-09T00:15:44.360Z,100.0000
2019-05-09T00:16:47.302Z,100.0000
2019-05-09T00:17:53.164Z,100.0000
2019-05-09T00:18:55.290Z,100.0000
2019-05-09T00:19:58.313Z,100.0000
2019-05-09T00:21:04.155Z,100.0000
2019-05-09T00:22:07.270Z,100.0000
2019-05-09T00:23:13.390Z,100.0000
2019-05-09T00:24:17.343Z,100.0000
2019-05-09T00:25:23.506Z,100.0000
2019-05-09T00:26:27.316Z,100.0000
2019-05-09T00:27:30.268Z,100.0000
2019-05-09T00:28:36.031Z,100.0000
2019-05-09T00:29:40.336Z,100.0000
2019-05-09T00:30:44.302Z,100.0000
2019-05-09T00:31:47.309Z,100.0000
2019-05-09T00:32:53.355Z,100.0000
2019-05-09T00:33:56.290Z,100.0000
2019-05-09T00:35:00.316Z,100.0000
2019-05-09T00:36:04.505Z,100.0000
2019-05-09T00:37:10.315Z,100.0000
2019-05-09T00:38:14.325Z,100.0000
2019-05-09T00:39:17.293Z,100.0000
2019-05-09T00:40:23.713Z,100.0000
2019-05-09T00:41:27.346Z,99.4629
2019-05-09T00:42:30.266Z,100.0000
2019-05-09T00:43:34.358Z,100.0000
2019-05-09T00:44:37.284Z,100.0000
2019-05-09T00:45:41.332Z,99.9161
2019-05-09T00:46:44.342Z,99.6292
2019-05-09T00:47:48.336Z,99.9847
2019-05-09T00:48:53.235Z,100.0000
2019-05-09T00:49:56.308Z,100.0000
2019-05-09T00:51:00.308Z,100.0000
2019-05-09T00:52:03.608Z,99.9939
2019-05-09T00:53:07.374Z,100.0000
2019-05-09T00:54:09.262Z,100.0000
2019-05-09T00:55:13.353Z,100.0000
2019-05-09T00:56:16.323Z,100.0000
2019-05-09T00:57:19.302Z,100.0000
2019-05-09T00:58:24.170Z,100.0000
2019-05-09T00:59:27.320Z,100.0000
2019-05-09T01:00:33.238Z,100.0000
2019-05-09T01:01:36.343Z,100.0000
2019-05-09T01:02:40.313Z,100.0000
2019-05-09T01:03:43.354Z,100.0000
2019-05-09T01:04:46.344Z,100.0000
2019-05-09T01:05:50.307Z,100.0000
2019-05-09T01:06:53.965Z,100.0000
2019-05-09T01:07:57.298Z,100.0000
2019-05-09T01:09:00.310Z,100.0000
2019-05-09T01:10:04.457Z,100.0000
2019-05-09T01:11:12.141Z,100.0000
2019-05-09T01:12:15.338Z,100.0000
2019-05-09T01:13:19.287Z,100.0000
2019-05-09T01:14:23.452Z,100.0000
2019-05-09T01:15:27.291Z,100.0000
2019-05-09T01:16:30.314Z,100.0000
2019-05-09T01:17:34.310Z,100.0000
2019-05-09T01:18:37.265Z,100.0000
2019-05-09T01:19:40.328Z,100.0000
2019-05-09T01:20:44.303Z,100.0000
2019-05-09T01:21:47.348Z,100.0000
2019-05-09T01:22:51.329Z,100.0000
2019-05-09T01:23:54.372Z,100.0000
2019-05-09T01:24:58.272Z,100.0000
2019-05-09T01:26:03.612Z,100.0000
2019-05-09T01:27:07.295Z,100.0000
2019-05-09T01:28:11.346Z,100.0000
2019-05-09T01:29:14.363Z,100.0000
2019-05-09T01:30:18.307Z,100.0000
2019-05-09T01:31:20.284Z,100.0000
2019-05-09T01:32:24.287Z,100.0000
2019-05-09T01:33:27.336Z,100.0000
2019-05-09T01:34:30.273Z,100.0000
2019-05-09T01:35:34.312Z,100.0000
2019-05-09T01:36:37.288Z,100.0000
2019-05-09T01:37:43.313Z,100.0000
2019-05-09T01:38:46.340Z,100.0000
2019-05-09T01:39:49.299Z,100.0000
2019-05-09T01:40:53.299Z,100.0000
2019-05-09T01:41:56.320Z,100.0000
2019-05-09T01:43:00.278Z,100.0000
2019-05-09T01:44:04.130Z,100.0000
2019-05-09T01:45:07.291Z,100.0000
2019-05-09T01:46:10.272Z,100.0000
2019-05-09T01:47:14.303Z,100.0000
2019-05-09T01:48:17.279Z,100.0000
2019-05-09T01:49:20.342Z,100.0000
2019-05-09T01:50:23.421Z,100.0000
2019-05-09T01:51:26.333Z,100.0000
2019-05-09T01:52:29.294Z,100.0000
2019-05-09T01:53:33.427Z,100.0000
2019-05-09T01:54:37.301Z,100.0000
2019-05-09T01:55:40.295Z,100.0000
2019-05-09T01:56:43.294Z,100.0000
2019-05-09T01:57:47.972Z,100.0000
2019-05-09T01:58:53.602Z,99.9023
2019-05-09T01:59:57.314Z,100.0000
2019-05-09T02:01:00.310Z,100.0000
2019-05-09T02:02:08.736Z,100.0000
2019-05-09T02:03:13.951Z,100.0000
2019-05-09T02:04:16.300Z,100.0000
2019-05-09T02:05:20.309Z,100.0000
2019-05-09T02:06:24.350Z,100.0000
2019-05-09T02:07:28.314Z,100.0000
2019-05-09T02:08:31.300Z,100.0000
2019-05-09T02:09:35.308Z,100.0000
2019-05-09T02:10:38.279Z,100.0000
2019-05-09T02:11:43.306Z,100.0000
2019-05-09T02:12:49.326Z,100.0000
2019-05-09T02:13:53.489Z,100.0000
2019-05-09T02:14:57.309Z,100.0000
2019-05-09T02:16:00.267Z,100.0000
2019-05-09T02:17:03.341Z,100.0000
2019-05-09T02:18:06.287Z,100.0000
2019-05-09T02:19:09.309Z,100.0000
2019-05-09T02:20:13.731Z,100.0000
2019-05-09T02:21:17.272Z,100.0000
2019-05-09T02:22:23.112Z,100.0000
2019-05-09T02:23:27.325Z,100.0000
2019-05-09T02:24:33.702Z,100.0000
2019-05-09T02:25:37.273Z,100.0000
2019-05-09T02:26:40.318Z,100.0000
2019-05-09T02:27:44.271Z,100.0000
2019-05-09T02:28:47.278Z,100.0000
2019-05-09T02:29:51.373Z,100.0000
2019-05-09T02:30:55.073Z,100.0000
2019-05-09T02:31:58.306Z,100.0000
2019-05-09T02:33:01.280Z,100.0000
2019-05-09T02:34:04.872Z,100.0000
2019-05-09T02:35:08.307Z,100.0000
2019-05-09T02:36:11.341Z,100.0000
2019-05-09T02:37:18.559Z,100.0000
2019-05-09T02:38:22.306Z,100.0000
2019-05-09T02:39:29.267Z,100.0000
2019-05-09T02:40:32.327Z,100.0000
2019-05-09T02:41:35.310Z,100.0000
2019-05-09T02:42:39.953Z,100.0000
2019-05-09T02:43:43.307Z,100.0000
2019-05-09T02:44:49.216Z,100.0000
2019-05-09T02:45:52.916Z,100.0000
2019-05-09T02:46:58.834Z,100.0000
2019-05-09T02:48:02.315Z,100.0000
2019-05-09T02:49:08.523Z,100.0000
2019-05-09T02:50:12.317Z,100.0000
2019-05-09T02:51:18.192Z,100.0000
2019-05-09T02:52:22.302Z,100.0000
2019-05-09T02:53:28.696Z,100.0000
2019-05-09T02:54:32.309Z,100.0000
2019-05-09T02:55:38.535Z,100.0000
2019-05-09T02:56:42.338Z,100.0000
2019-05-09T02:57:48.795Z,100.0000
2019-05-09T02:58:52.315Z,100.0000
2019-05-09T02:59:58.981Z,100.0000
2019-05-09T03:01:01.293Z,100.0000
2019-05-09T03:02:05.348Z,100.0000
2019-05-09T03:03:09.219Z,100.0000
2019-05-09T03:04:13.312Z,100.0000
2019-05-09T03:05:19.545Z,100.0000
2019-05-09T03:06:23.330Z,100.0000
2019-05-09T03:07:28.849Z,100.0000
2019-05-09T03:08:32.328Z,100.0000
2019-05-09T03:09:38.786Z,100.0000
2019-05-09T03:10:42.274Z,100.0000
2019-05-09T03:11:48.280Z,100.0000
2019-05-09T03:12:52.319Z,100.0000
2019-05-09T03:13:58.339Z,100.0000
2019-05-09T03:15:02.288Z,100.0000
2019-05-09T03:16:08.317Z,100.0000
2019-05-09T03:17:12.299Z,100.0000
2019-05-09T03:18:17.704Z,100.0000
2019-05-09T03:19:21.280Z,100.0000
2019-05-09T03:20:28.912Z,100.0000
2019-05-09T03:21:32.276Z,100.0000
2019-05-09T03:22:39.231Z,100.0000
2019-05-09T03:23:43.319Z,100.0000
2019-05-09T03:24:48.611Z,100.0000
2019-05-09T03:25:52.311Z,100.0000
2019-05-09T03:26:55.292Z,100.0000
2019-05-09T03:27:59.330Z,100.0000
2019-05-09T03:29:02.283Z,100.0000
2019-05-09T03:30:11.104Z,100.0000
2019-05-09T03:31:14.321Z,100.0000
2019-05-09T03:32:19.490Z,100.0000
2019-05-09T03:33:23.354Z,100.0000
2019-05-09T03:34:29.778Z,100.0000
2019-05-09T03:35:32.301Z,100.0000
2019-05-09T03:36:34.445Z,100.0000
2019-05-09T03:37:38.355Z,100.0000
2019-05-09T03:38:41.276Z,100.0000
2019-05-09T03:39:44.310Z,100.0000
2019-05-09T03:40:47.783Z,100.0000
2019-05-09T03:41:50.316Z,100.0000
2019-05-09T03:42:54.314Z,100.0000
2019-05-09T03:43:58.518Z,100.0000
2019-05-09T03:45:02.307Z,100.0000
2019-05-09T03:46:07.664Z,100.0000
2019-05-09T03:47:11.271Z,100.0000
2019-05-09T03:48:14.292Z,100.0000
2019-05-09T03:49:17.987Z,100.0000
2019-05-09T03:50:21.296Z,100.0000
2019-05-09T03:51:24.332Z,100.0000
2019-05-09T03:52:28.268Z,100.0000
2019-05-09T03:53:31.286Z,100.0000
2019-05-09T03:54:37.445Z,100.0000
2019-05-09T03:55:41.270Z,100.0000
2019-05-09T03:56:44.308Z,100.0000
2019-05-09T03:57:48.296Z,100.0000
2019-05-09T03:58:53.378Z,100.0000
2019-05-09T03:59:57.356Z,100.0000
2019-05-09T04:01:00.308Z,100.0000
2019-05-09T04:02:04.288Z,100.0000
2019-05-09T04:03:08.164Z,100.0000
2019-05-09T04:04:11.318Z,100.0000
2019-05-09T04:05:15.307Z,100.0000
2019-05-09T04:06:18.598Z,100.0000
2019-05-09T04:07:22.285Z,100.0000
2019-05-09T04:08:25.336Z,100.0000
2019-05-09T04:09:29.275Z,100.0000
2019-05-09T04:10:32.281Z,100.0000
2019-05-09T04:11:35.287Z,100.0000
2019-05-09T04:12:52.763Z,100.0000
2019-05-09T04:13:47.679Z,100.0000
2019-05-09T04:14:51.279Z,100.0000
2019-05-09T04:15:54.306Z,100.0000
2019-05-09T04:16:58.268Z,100.0000
2019-05-09T04:18:01.295Z,100.0000
2019-05-09T04:19:04.301Z,100.0000
2019-05-09T04:20:08.318Z,100.0000
2019-05-09T04:21:11.295Z,100.0000
2019-05-09T04:22:15.297Z,100.0000
2019-05-09T04:23:18.748Z,100.0000
2019-05-09T04:24:22.324Z,100.0000
2019-05-09T04:25:27.234Z,100.0000
2019-05-09T04:26:30.275Z,100.0000
2019-05-09T04:27:34.303Z,100.0000
2019-05-09T04:28:39.687Z,100.0000
2019-05-09T04:29:43.346Z,100.0000
2019-05-09T04:30:47.764Z,100.0000
2019-05-09T04:31:51.277Z,99.5270
2019-05-09T04:32:54.303Z,99.1394
2019-05-09T04:33:57.505Z,99.5041
2019-05-09T04:35:01.279Z,99.4995
2019-05-09T04:36:04.304Z,99.1653
2019-05-09T04:37:11.625Z,98.7320
2019-05-09T04:38:15.311Z,98.9609
2019-05-09T04:39:23.620Z,98.8922
2019-05-09T04:40:31.849Z,97.5967
2019-05-09T04:41:35.295Z,97.0321
2019-05-09T04:42:43.161Z,97.2244
2019-05-09T04:43:48.709Z,97.2885
2019-05-09T04:44:57.248Z,97.1374
2019-05-09T04:46:00.336Z,96.2234
2019-05-09T04:47:04.275Z,96.5118
2019-05-09T04:48:07.752Z,96.7727
2019-05-09T04:49:11.272Z,96.8963
2019-05-09T04:50:19.917Z,97.0825
2019-05-09T04:51:23.318Z,96.7544
2019-05-09T04:52:27.914Z,96.7178
2019-05-09T04:53:31.346Z,96.7636
2019-05-09T04:54:35.295Z,97.0749
2019-05-09T04:55:38.317Z,96.2188
2019-05-09T04:56:41.287Z,96.0311
2019-05-09T04:57:45.305Z,96.6949
2019-05-09T04:58:48.358Z,97.1115
2019-05-09T04:59:52.300Z,96.8902
2019-05-09T05:00:57.229Z,96.4050
2019-05-09T05:02:01.315Z,96.3241
2019-05-09T05:03:04.316Z,96.6567
2019-05-09T05:04:07.804Z,96.9604
2019-05-09T05:05:11.275Z,97.2168
2019-05-09T05:06:14.291Z,97.0459
2019-05-09T05:07:18.048Z,96.8277
2019-05-09T05:08:21.285Z,96.3958
2019-05-09T05:09:27.575Z,97.2335
2019-05-09T05:10:31.281Z,97.1008
2019-05-09T05:11:34.338Z,97.1435
2019-05-09T05:12:38.315Z,96.4019
2019-05-09T05:13:41.280Z,96.2783
2019-05-09T05:14:47.454Z,96.4431
2019-05-09T05:15:51.317Z,96.6384
2019-05-09T05:17:04.353Z,96.8460
2019-05-09T05:18:03.271Z,97.1878
2019-05-09T05:19:07.514Z,97.8836
2019-05-09T05:20:11.315Z,98.0728
2019-05-09T05:21:14.316Z,99.1424
2019-05-09T05:22:18.422Z,99.4873
2019-05-09T05:23:21.323Z,100.0000
2019-05-09T05:24:27.647Z,100.0000
2019-05-09T05:25:31.325Z,100.0000
2019-05-09T05:26:34.288Z,100.0000
2019-05-09T05:27:38.380Z,100.0000
2019-05-09T05:28:41.295Z,100.0000
2019-05-09T05:29:47.495Z,100.0000
2019-05-09T05:30:50.327Z,100.0000
2019-05-09T05:31:54.290Z,100.0000
2019-05-09T05:32:58.032Z,100.0000
2019-05-09T05:34:00.325Z,99.8566
2019-05-09T05:35:04.341Z,100.0000
2019-05-09T05:36:07.922Z,97.3953
2019-05-09T05:37:11.318Z,97.0184
2019-05-09T05:38:14.319Z,97.8851
2019-05-09T05:39:18.310Z,98.5245
2019-05-09T05:40:21.303Z,98.9044
2019-05-09T05:41:24.299Z,99.6597
2019-05-09T05:42:28.509Z,100.0000
2019-05-09T05:43:41.512Z,100.0000
2019-05-09T05:44:40.320Z,100.0000
2019-05-09T05:45:43.284Z,100.0000
2019-05-09T05:46:50.531Z,100.0000
2019-05-09T05:47:54.287Z,100.0000
2019-05-09T05:48:57.872Z,100.0000
2019-05-09T05:50:01.320Z,100.0000
2019-05-09T05:51:04.303Z,100.0000
2019-05-09T05:52:08.331Z,100.0000
2019-05-09T05:53:11.301Z,100.0000
2019-05-09T05:54:15.331Z,100.0000
2019-05-09T05:55:18.425Z,100.0000
2019-05-09T05:56:21.308Z,100.0000
2019-05-09T05:57:27.365Z,100.0000
2019-05-09T05:58:31.293Z,100.0000
2019-05-09T05:59:39.847Z,100.0000
2019-05-09T06:00:43.325Z,100.0000
2019-05-09T06:01:47.806Z,100.0000
2019-05-09T06:02:51.333Z,100.0000
2019-05-09T06:03:54.295Z,100.0000
2019-05-09T06:04:58.316Z,100.0000
2019-05-09T06:06:01.287Z,100.0000
2019-05-09T06:07:07.730Z,100.0000
2019-05-09T06:08:11.361Z,99.4324
2019-05-09T06:09:15.306Z,98.8678
2019-05-09T06:10:18.809Z,99.6414
2019-05-09T06:11:22.318Z,99.2294
2019-05-09T06:12:27.620Z,98.6770
2019-05-09T06:13:31.306Z,99.1791
2019-05-09T06:14:37.599Z,97.9522
2019-05-09T06:15:41.289Z,97.7844
2019-05-09T06:16:45.277Z,97.3343
2019-05-09T06:17:48.605Z,98.5260
2019-05-09T06:18:52.278Z,98.7732
2019-05-09T06:19:58.675Z,98.8769
2019-05-09T06:21:02.289Z,99.2859
2019-05-09T06:22:08.172Z,98.1765
2019-05-09T06:23:12.358Z,98.5168
2019-05-09T06:24:17.684Z,97.8882
2019-05-09T06:25:21.428Z,97.7203
2019-05-09T06:26:25.314Z,97.5097
2019-05-09T06:27:29.301Z,97.7523
2019-05-09T06:28:32.329Z,97.9538
2019-05-09T06:29:38.743Z,98.4298
2019-05-09T06:30:42.291Z,97.5875
2019-05-09T06:31:48.274Z,98.3475
2019-05-09T06:32:52.312Z,98.0301
2019-05-09T06:33:57.606Z,98.5626
2019-05-09T06:35:01.300Z,98.3230
2019-05-09T06:36:03.371Z,98.0987
2019-05-09T06:37:09.070Z,96.9406
2019-05-09T06:38:12.334Z,97.2442
2019-05-09T06:39:17.859Z,97.9339
2019-05-09T06:40:21.663Z,97.4182
2019-05-09T06:41:25.322Z,97.5647
2019-05-09T06:42:29.285Z,97.2335
2019-05-09T06:43:32.310Z,98.1781
2019-05-09T06:44:37.421Z,97.5174
2019-05-09T06:45:41.783Z,97.3404
2019-05-09T06:46:45.307Z,97.2625
2019-05-09T06:47:48.746Z,97.3526
2019-05-09T06:48:52.350Z,96.8826
2019-05-09T06:49:57.450Z,95.6374
2019-05-09T06:51:01.322Z,95.0011
2019-05-09T06:52:05.290Z,95.5184
2019-05-09T06:53:08.323Z,96.3836
2019-05-09T06:54:12.280Z,96.4614
2019-05-09T06:55:17.201Z,96.3134
2019-05-09T06:56:21.331Z,97.2931
2019-05-09T06:57:27.885Z,96.4599
2019-05-09T06:58:31.306Z,97.2427
2019-05-09T06:59:35.340Z,97.6013
2019-05-09T07:00:38.341Z,97.7432
2019-05-09T07:01:42.321Z,97.8973
2019-05-09T07:02:47.715Z,95.7977
2019-05-09T07:03:51.320Z,95.2422
2019-05-09T07:04:55.338Z,95.0225
2019-05-09T07:05:58.299Z,94.7219
2019-05-09T07:07:02.312Z,95.0866
2019-05-09T07:08:05.288Z,94.3267
2019-05-09T07:09:09.327Z,94.4549
2019-05-09T07:10:12.351Z,94.0398
2019-05-09T07:11:15.347Z,94.9447
2019-05-09T07:12:19.325Z,95.1888
2019-05-09T07:13:22.305Z,92.5139
2019-05-09T07:14:31.716Z,93.3471
2019-05-09T07:15:34.299Z,93.1563
2019-05-09T07:16:38.319Z,93.1456
2019-05-09T07:17:41.270Z,91.6182
2019-05-09T07:18:44.311Z,92.0577
2019-05-09T07:19:49.069Z,92.5612
2019-05-09T07:20:52.315Z,92.1447
2019-05-09T07:21:57.941Z,92.3308
2019-05-09T07:23:01.278Z,92.5704
2019-05-09T07:24:05.334Z,91.6091
2019-05-09T07:25:11.009Z,91.6182
2019-05-09T07:26:17.496Z,90.8171
2019-05-09T07:27:21.284Z,91.4488
2019-05-09T07:28:24.325Z,92.2316
2019-05-09T07:29:28.531Z,92.5093
2019-05-09T07:30:32.307Z,93.4752
2019-05-09T07:31:37.955Z,93.2342
2019-05-09T07:32:41.311Z,93.7316
2019-05-09T07:33:44.325Z,93.9895
2019-05-09T07:34:48.330Z,94.1131
2019-05-09T07:35:51.331Z,93.9483
2019-05-09T07:36:57.932Z,93.1685
2019-05-09T07:38:01.301Z,92.9671
2019-05-09T07:39:05.281Z,93.2967
2019-05-09T07:40:08.590Z,92.7306
2019-05-09T07:41:12.267Z,92.2957
2019-05-09T07:42:17.865Z,92.4697
2019-05-09T07:43:21.294Z,91.1635
2019-05-09T07:44:25.330Z,91.7083
2019-05-09T07:45:28.328Z,91.8639
2019-05-09T07:46:32.289Z,91.3008
2019-05-09T07:47:35.334Z,91.6182
2019-05-09T07:48:38.340Z,91.3054
2019-05-09T07:49:42.304Z,91.1421
2019-05-09T07:50:45.284Z,89.9596
2019-05-09T07:51:49.307Z,90.6798
2019-05-09T07:52:52.316Z,90.9911
2019-05-09T07:53:58.706Z,91.0231
2019-05-09T07:55:02.295Z,91.4427
2019-05-09T07:56:07.715Z,92.5200
2019-05-09T07:57:11.311Z,91.9829
2019-05-09T07:58:14.531Z,93.1014
2019-05-09T07:59:18.307Z,92.8344
2019-05-09T08:00:21.335Z,93.0175
2019-05-09T08:01:27.853Z,92.6329
2019-05-09T08:02:31.312Z,92.2896
2019-05-09T08:03:34.284Z,92.8344
2019-05-09T08:04:38.593Z,93.0648
2019-05-09T08:05:42.284Z,91.7006
2019-05-09T08:06:48.620Z,91.9432
2019-05-09T08:07:52.315Z,92.0470
2019-05-09T08:08:58.136Z,92.0424
2019-05-09T08:10:02.386Z,92.1843
2019-05-09T08:11:05.311Z,90.7286
2019-05-09T08:12:09.363Z,91.4611
2019-05-09T08:13:12.329Z,91.8227
2019-05-09T08:14:17.596Z,91.5480
2019-05-09T08:15:21.330Z,90.9453
2019-05-09T08:16:27.277Z,91.2184
2019-05-09T08:17:31.319Z,91.7830
2019-05-09T08:18:34.329Z,92.2438
2019-05-09T08:19:38.325Z,90.5821
2019-05-09T08:20:41.298Z,90.8888
2019-05-09T08:21:45.333Z,90.7393
2019-05-09T08:22:57.282Z,89.9840
2019-05-09T08:23:58.014Z,90.6432
2019-05-09T08:25:01.294Z,90.8339
2019-05-09T08:26:04.688Z,90.5272
2019-05-09T08:27:08.657Z,90.8431
2019-05-09T08:28:12.324Z,89.5445
2019-05-09T08:29:17.849Z,88.8808
2019-05-09T08:30:23.321Z,89.4881
2019-05-09T08:31:28.052Z,88.4230
2019-05-09T08:32:31.314Z,87.9652
2019-05-09T08:33:34.341Z,88.2353
2019-05-09T08:34:38.349Z,88.7327
2019-05-09T08:35:41.321Z,89.3828
2019-05-09T08:36:47.605Z,88.8167
2019-05-09T08:37:51.308Z,89.2927
2019-05-09T08:38:58.357Z,88.8380
2019-05-09T08:40:02.318Z,87.9454
2019-05-09T08:41:05.327Z,87.9957
2019-05-09T08:42:09.300Z,87.9408
2019-05-09T08:43:12.383Z,87.0115
2019-05-09T08:44:18.412Z,87.1458
2019-05-09T08:45:27.832Z,88.2338
2019-05-09T08:46:30.304Z,87.5898
2019-05-09T08:47:33.333Z,88.2628
2019-05-09T08:48:37.635Z,87.0665
2019-05-09T08:49:41.327Z,86.9657
2019-05-09T08:50:44.285Z,86.4912
2019-05-09T08:52:06.725Z,86.6102
2019-05-09T08:52:57.595Z,86.4317
2019-05-09T08:54:01.357Z,87.1229
2019-05-09T08:55:04.328Z,86.7567
2019-05-09T08:56:09.049Z,86.2379
2019-05-09T08:57:14.294Z,84.9653
2019-05-09T08:58:19.633Z,84.5502
2019-05-09T08:59:23.339Z,83.0854
2019-05-09T09:00:28.142Z,82.9694
2019-05-09T09:01:50.002Z,83.7720
2019-05-09T09:02:40.336Z,84.7929
2019-05-09T09:03:43.305Z,84.1474
2019-05-09T09:04:48.848Z,82.8290
2019-05-09T09:05:52.309Z,83.6896
2019-05-09T09:06:57.652Z,82.8641
2019-05-09T09:08:01.340Z,83.6240
2019-05-09T09:09:05.792Z,83.9918
2019-05-09T09:10:11.299Z,82.5772
2019-05-09T09:11:14.318Z,83.0655
2019-05-09T09:12:29.423Z,82.8824
2019-05-09T09:13:28.230Z,82.5772
2019-05-09T09:14:32.281Z,82.3423
2019-05-09T09:16:02.263Z,81.6022
2019-05-09T09:16:43.293Z,80.3967
2019-05-09T09:17:48.872Z,79.8810
2019-05-09T09:18:52.291Z,80.4334
2019-05-09T09:19:58.221Z,78.8540
2019-05-09T09:21:02.342Z,78.4436
2019-05-09T09:22:08.601Z,79.6460
2019-05-09T09:23:14.364Z,79.8901
2019-05-09T09:24:18.318Z,79.6750
2019-05-09T09:25:21.315Z,78.3291
2019-05-09T09:26:24.349Z,78.4649
2019-05-09T09:27:28.319Z,78.5016
2019-05-09T09:28:31.324Z,78.4024
2019-05-09T09:29:34.323Z,78.8922
2019-05-09T09:30:38.575Z,79.2615
2019-05-09T09:31:43.313Z,79.3454
2019-05-09T09:32:47.914Z,79.8718
2019-05-09T09:33:51.299Z,79.5605
2019-05-09T09:34:55.343Z,79.7559
2019-05-09T09:35:58.340Z,79.9664
2019-05-09T09:37:05.351Z,80.3937
2019-05-09T09:38:10.304Z,79.7147
2019-05-09T09:39:14.355Z,80.2319
2019-05-09T09:40:17.797Z,79.7711
2019-05-09T09:41:21.351Z,79.1440
2019-05-09T09:42:28.002Z,80.1038
2019-05-09T09:43:31.280Z,79.7803
2019-05-09T09:44:35.357Z,79.9893
2019-05-09T09:45:38.312Z,78.8312
2019-05-09T09:46:42.336Z,79.3317
2019-05-09T09:47:47.990Z,79.0570
2019-05-09T09:48:51.315Z,78.6023
2019-05-09T09:49:57.848Z,77.9339
2019-05-09T09:51:02.308Z,77.5280
2019-05-09T09:52:08.572Z,77.1847
2019-05-09T09:53:12.334Z,77.3724
2019-05-09T09:54:18.643Z,77.0886
2019-05-09T09:55:22.381Z,77.1527
2019-05-09T09:56:25.299Z,75.7504
2019-05-09T09:57:29.297Z,75.6817
2019-05-09T09:58:32.309Z,75.8557
2019-05-09T09:59:38.570Z,74.7372
2019-05-09T10:00:44.349Z,75.2468
2019-05-09T10:01:48.304Z,75.1247
2019-05-09T10:02:51.374Z,75.1705
2019-05-09T10:03:54.308Z,73.3822
2019-05-09T10:04:58.328Z,73.1365
2019-05-09T10:06:01.316Z,73.2326
2019-05-09T10:07:05.303Z,72.9747
2019-05-09T10:08:13.284Z,72.8618
2019-05-09T10:09:17.492Z,72.1157
2019-05-09T10:10:21.315Z,72.2011
2019-05-09T10:11:24.308Z,70.3624
2019-05-09T10:12:28.976Z,71.3375
2019-05-09T10:13:32.301Z,71.6655
2019-05-09T10:14:36.317Z,71.5373
2019-05-09T10:15:39.271Z,71.4244
2019-05-09T10:16:43.371Z,70.0374
2019-05-09T10:17:47.717Z,69.9733
2019-05-09T10:18:51.298Z,68.4749
2019-05-09T10:19:55.304Z,67.9026
2019-05-09T10:20:58.675Z,66.6545
2019-05-09T10:22:02.357Z,68.2979
2019-05-09T10:23:15.211Z,69.5460
2019-05-09T10:24:13.290Z,69.8802
2019-05-09T10:25:18.261Z,67.7836
2019-05-09T10:26:22.317Z,68.5985
2019-05-09T10:27:28.364Z,69.4148
2019-05-09T10:28:32.280Z,69.3690
2019-05-09T10:29:38.530Z,69.0059
2019-05-09T10:30:42.292Z,69.2256
2019-05-09T10:31:48.651Z,69.2897
2019-05-09T10:32:52.303Z,68.6641
2019-05-09T10:33:55.338Z,68.3940
2019-05-09T10:34:59.294Z,69.4224
2019-05-09T10:36:04.777Z,68.8289
2019-05-09T10:37:09.405Z,68.8090
2019-05-09T10:38:12.309Z,69.8222
2019-05-09T10:39:18.787Z,67.7531
2019-05-09T10:40:21.665Z,68.3879
2019-05-09T10:41:25.291Z,69.0761
2019-05-09T10:42:29.371Z,69.2073
2019-05-09T10:43:38.418Z,67.6051
2019-05-09T10:44:40.328Z,68.4611
2019-05-09T10:45:43.306Z,69.0211
2019-05-09T10:46:56.370Z,67.6387
2019-05-09T10:47:57.532Z,67.9133
2019-05-09T10:49:01.334Z,67.2755
2019-05-09T10:50:05.300Z,67.5837
2019-05-09T10:51:10.441Z,67.5135
2019-05-09T10:52:14.708Z,66.8559
2019-05-09T10:53:18.316Z,68.1102
2019-05-09T10:54:22.321Z,66.9612
2019-05-09T10:55:25.301Z,65.0050
2019-05-09T10:56:28.347Z,65.2033
2019-05-09T10:57:32.728Z,64.2130
2019-05-09T10:58:37.398Z,64.6021
2019-05-09T10:59:41.330Z,64.0772
2019-05-09T11:00:44.294Z,64.1093
2019-05-09T11:01:49.422Z,65.6336
2019-05-09T11:02:53.301Z,65.3300
2019-05-09T11:03:58.645Z,64.5060
2019-05-09T11:05:02.318Z,64.5197
2019-05-09T11:06:05.363Z,63.9353
2019-05-09T11:07:09.321Z,63.4897
2019-05-09T11:08:12.298Z,64.1489
2019-05-09T11:09:18.231Z,64.7807
2019-05-09T11:10:28.387Z,63.2700
2019-05-09T11:11:30.357Z,63.8972
2019-05-09T11:12:34.321Z,64.3198
2019-05-09T11:13:38.968Z,64.6357
2019-05-09T11:14:43.342Z,64.6174
2019-05-09T11:15:47.986Z,65.1560
2019-05-09T11:17:06.675Z,65.9174
2019-05-09T11:17:59.314Z,65.0751
2019-05-09T11:19:02.307Z,65.2628
2019-05-09T11:20:08.699Z,65.9709
2019-05-09T11:21:12.324Z,64.0497
2019-05-09T11:22:15.309Z,64.0909
2019-05-09T11:23:19.384Z,64.6708
2019-05-09T11:24:38.788Z,64.5624
2019-05-09T11:25:31.351Z,65.5100
2019-05-09T11:26:34.296Z,67.5959
2019-05-09T11:27:38.870Z,68.2368
2019-05-09T11:28:42.329Z,69.6437
2019-05-09T11:29:49.639Z,70.7179
2019-05-09T11:30:53.314Z,70.9377
2019-05-09T11:31:58.756Z,71.2001
2019-05-09T11:33:02.344Z,71.2596
2019-05-09T11:34:04.326Z,71.0018
2019-05-09T11:35:09.060Z,71.2902
2019-05-09T11:36:12.612Z,70.9377
2019-05-09T11:37:16.295Z,70.9697
2019-05-09T11:38:33.007Z,70.0404
2019-05-09T11:39:36.647Z,70.3197
2019-05-09T11:40:37.658Z,69.3278
2019-05-09T11:41:41.333Z,70.6767
2019-05-09T11:42:45.299Z,69.7124
2019-05-09T11:43:48.717Z,69.6971
2019-05-09T11:44:52.335Z,69.0440
2019-05-09T11:45:55.341Z,66.8421
2019-05-09T11:46:59.331Z,66.0182
2019-05-09T11:48:02.279Z,65.6825
2019-05-09T11:49:08.014Z,66.2135
2019-05-09T11:50:12.304Z,65.7877
2019-05-09T11:51:18.249Z,66.3050
2019-05-09T11:52:23.315Z,66.8269
2019-05-09T11:53:28.590Z,62.8992
2019-05-09T11:54:32.307Z,64.4892
2019-05-09T11:55:39.430Z,65.3864
2019-05-09T11:56:43.306Z,66.6041
2019-05-09T11:57:48.509Z,66.6865
2019-05-09T11:58:51.285Z,65.3269
2019-05-09T11:59:57.684Z,64.8005
2019-05-09T12:01:02.613Z,64.7578
2019-05-09T12:02:08.910Z,63.8926
2019-05-09T12:03:12.335Z,64.3732
2019-05-09T12:04:15.285Z,64.2542
2019-05-09T12:05:19.433Z,65.3849
2019-05-09T12:06:22.291Z,65.4322
2019-05-09T12:07:28.608Z,66.1738
2019-05-09T12:08:32.250Z,65.5467
2019-05-09T12:09:38.550Z,65.3407
2019-05-09T12:10:42.336Z,65.7938
2019-05-09T12:11:44.878Z,65.7526
2019-05-09T12:12:47.841Z,65.7114
2019-05-09T12:13:51.295Z,65.8946
2019-05-09T12:14:55.304Z,64.4007
2019-05-09T12:15:58.557Z,65.4185
2019-05-09T12:17:02.319Z,65.8076
2019-05-09T12:18:09.144Z,65.5131
2019-05-09T12:19:13.320Z,66.5110
2019-05-09T12:20:18.082Z,66.1234
2019-05-09T12:21:21.341Z,66.1585
2019-05-09T12:22:27.928Z,65.9586
2019-05-09T12:23:31.300Z,66.3615
2019-05-09T12:24:35.293Z,65.7847
2019-05-09T12:25:38.780Z,64.9683
2019-05-09T12:26:42.373Z,65.2628
2019-05-09T12:27:48.528Z,64.3366
2019-05-09T12:28:52.351Z,64.9561
2019-05-09T12:29:58.068Z,64.7349
2019-05-09T12:31:01.335Z,65.5100
2019-05-09T12:32:04.336Z,64.8676
2019-05-09T12:33:08.519Z,65.6458
2019-05-09T12:34:12.316Z,65.9251
2019-05-09T12:35:18.882Z,65.2659
2019-05-09T12:36:22.289Z,66.2242
2019-05-09T12:37:28.181Z,66.9368
2019-05-09T12:38:31.314Z,66.9291
2019-05-09T12:39:37.728Z,66.1860
2019-05-09T12:40:41.323Z,65.0294
2019-05-09T12:41:44.263Z,67.0527
2019-05-09T12:42:50.046Z,68.3848
2019-05-09T12:43:54.295Z,68.1102
2019-05-09T12:44:58.922Z,67.7760
2019-05-09T12:46:02.326Z,67.5639
2019-05-09T12:47:06.426Z,66.7277
2019-05-09T12:48:15.014Z,65.9892